Time;durP1;ratioP1;P1;durP2;ratioP2;P2;SDS_P1;SDS_P2;PMS_P1;PMS_P2;Temp;Humidity;BMP_temperature;BMP_pressure;BME280_temperature;BME280_humidity;BME280_pressure;Samples;Min_cycle;Max_cycle;Signal;HPM_P1;HPM_P2
2022/08/29 00:00:16;;;;;;;4.82;1.83;;;;;;;17.85;51.21;100718.34;5084717;28;20578;-68
2022/08/29 00:02:49;;;;;;;6.22;1.95;;;;;;;17.81;51.02;100713.31;5089193;28;20499;-68
2022/08/29 00:05:25;;;;;;;4.60;1.60;;;;;;;17.78;51.07;100714.41;5094865;28;20106;-69
2022/08/29 00:07:52;;;;;;;4.82;1.73;;;;;;;17.69;51.36;100701.66;5093995;28;20632;-68
2022/08/29 00:10:20;;;;;;;6.03;1.50;;;;;;;17.65;51.50;100700.16;5073724;28;20104;-68
2022/08/29 00:12:46;;;;;;;4.45;1.60;;;;;;;17.63;51.56;100710.09;5092650;27;20047;-69
2022/08/29 00:15:14;;;;;;;7.03;1.60;;;;;;;17.51;51.55;100693.09;5093478;28;20043;-68
2022/08/29 00:17:41;;;;;;;6.32;1.90;;;;;;;17.66;51.66;100712.59;5084025;27;20074;-68
2022/08/29 00:20:12;;;;;;;5.47;1.60;;;;;;;17.67;51.15;100713.44;5085540;27;20124;-68
2022/08/29 00:22:39;;;;;;;3.33;1.55;;;;;;;17.63;51.69;100717.31;5090145;27;20513;-68
2022/08/29 00:25:07;;;;;;;5.45;1.90;;;;;;;17.60;51.61;100721.03;5089935;28;20048;-69
2022/08/29 00:27:34;;;;;;;6.70;2.03;;;;;;;17.51;52.01;100719.00;5086405;28;20059;-67
2022/08/29 00:30:02;;;;;;;5.15;1.80;;;;;;;17.51;52.04;100719.00;5086472;27;20135;-68
2022/08/29 00:32:33;;;;;;;7.28;2.10;;;;;;;17.43;52.14;100722.25;5091032;28;20044;-68
2022/08/29 00:35:03;;;;;;;5.03;1.55;;;;;;;17.42;52.37;100727.69;5083484;27;20051;-68
2022/08/29 00:37:30;;;;;;;4.00;1.48;;;;;;;17.39;52.37;100723.41;5090111;28;20504;-68
2022/08/29 00:39:57;;;;;;;3.67;1.73;;;;;;;17.34;52.65;100727.34;5087849;28;20093;-68
2022/08/29 00:42:24;;;;;;;3.85;1.90;;;;;;;17.36;52.62;100726.28;5091065;28;20487;-68
2022/08/29 00:44:50;;;;;;;4.38;1.70;;;;;;;17.31;52.61;100712.41;5088977;28;20067;-68
2022/08/29 00:47:25;;;;;;;4.20;1.70;;;;;;;17.32;52.61;100723.94;5093135;28;20133;-68
2022/08/29 00:49:54;;;;;;;7.43;1.88;;;;;;;17.21;52.82;100702.41;5090650;28;20769;-68
2022/08/29 00:52:24;;;;;;;4.25;1.63;;;;;;;17.38;52.72;100728.88;5088859;28;20056;-69
2022/08/29 00:54:54;;;;;;;2.95;1.52;;;;;;;17.26;52.55;100711.00;5089477;28;20062;-69
2022/08/29 00:57:23;;;;;;;4.53;1.75;;;;;;;17.45;52.57;100730.16;5088650;28;20144;-68
2022/08/29 00:59:51;;;;;;;4.32;1.67;;;;;;;17.34;52.54;100716.66;5096572;28;20438;-68
2022/08/29 01:02:18;;;;;;;4.68;1.45;;;;;;;17.30;52.88;100720.53;5098643;28;20141;-69
2022/08/29 01:04:45;;;;;;;4.63;1.60;;;;;;;17.28;52.77;100723.31;5101565;28;20078;-69
2022/08/29 01:07:11;;;;;;;4.15;1.63;;;;;;;17.28;52.64;100723.31;5101361;28;20104;-69
2022/08/29 01:09:41;;;;;;;4.53;1.98;;;;;;;17.22;52.89;100720.19;5100222;28;20067;-67
2022/08/29 01:12:17;;;;;;;4.47;1.67;;;;;;;17.15;53.35;100717.09;5092298;28;20052;-68
2022/08/29 01:14:51;;;;;;;5.43;1.58;;;;;;;17.16;53.10;100725.00;5097043;28;20489;-68
2022/08/29 01:17:27;;;;;;;4.82;1.73;;;;;;;17.13;53.30;100724.38;5096284;28;20135;-68
2022/08/29 01:20:28;;;;;;;5.72;1.80;;;;;;;17.11;53.42;100732.50;5077181;28;20052;-68
2022/08/29 01:22:59;;;;;;;6.30;1.75;;;;;;;17.09;53.58;100730.88;5094165;28;20091;-68
2022/08/29 01:25:32;;;;;;;3.88;1.58;;;;;;;16.93;53.84;100703.47;5093101;28;20073;-68
2022/08/29 01:28:14;;;;;;;5.65;1.67;;;;;;;16.99;53.62;100725.31;5095527;28;20059;-68
2022/08/29 01:31:03;;;;;;;5.88;1.70;;;;;;;16.92;53.77;100732.03;5092581;28;20042;-68
2022/08/29 01:36:34;;;;;;;4.25;1.70;;;;;;;16.87;54.40;100731.47;4988087;28;21290;-68
2022/08/29 01:39:01;;;;;;;6.32;1.70;;;;;;;16.91;54.06;100724.97;4995318;28;20080;-68
2022/08/29 01:41:29;;;;;;;7.00;1.80;;;;;;;16.92;54.08;100728.50;4989338;28;20042;-69
2022/08/29 01:43:56;;;;;;;6.57;1.65;;;;;;;16.84;54.41;100729.03;4984759;28;20050;-68
2022/08/29 01:46:27;;;;;;;5.45;2.00;;;;;;;16.83;54.16;100732.69;4984871;28;20058;-69
2022/08/29 01:48:54;;;;;;;4.70;1.65;;;;;;;16.84;54.33;100743.25;4987258;28;20087;-69
2022/08/29 01:51:23;;;;;;;3.80;1.63;;;;;;;16.82;54.35;100747.88;4983934;28;20758;-69
2022/08/29 01:53:50;;;;;;;3.90;1.60;;;;;;;16.80;54.59;100743.56;4978543;28;20050;-69
2022/08/29 01:56:39;;;;;;;3.58;1.60;;;;;;;16.78;54.57;100745.50;4991426;28;20050;-69
2022/08/29 01:59:09;;;;;;;8.05;1.98;;;;;;;16.71;54.73;100744.16;4986325;28;20477;-69
2022/08/29 02:01:43;;;;;;;6.18;1.80;;;;;;;16.66;54.89;100746.31;4993583;28;20517;-68
2022/08/29 02:04:10;;;;;;;6.03;1.65;;;;;;;16.61;55.00;100743.91;4999516;28;20566;-68
2022/08/29 02:06:37;;;;;;;3.60;1.65;;;;;;;16.55;55.24;100749.66;4992243;28;20088;-69
2022/08/29 02:09:04;;;;;;;7.63;1.55;;;;;;;16.38;55.40;100732.03;4999062;28;20046;-69
2022/08/29 02:11:32;;;;;;;5.18;1.83;;;;;;;16.53;55.48;100748.06;4993154;28;20046;-68
2022/08/29 02:13:58;;;;;;;7.03;1.83;;;;;;;16.56;55.26;100753.19;4997669;28;20130;-68
2022/08/29 02:16:27;;;;;;;4.82;1.40;;;;;;;16.59;55.26;100747.63;4994410;28;20054;-68
2022/08/29 02:18:54;;;;;;;6.38;1.80;;;;;;;16.55;55.34;100751.47;4998028;28;20054;-68
2022/08/29 02:21:24;;;;;;;6.00;1.83;;;;;;;16.52;55.05;100746.34;4998283;28;20050;-68
2022/08/29 02:23:53;;;;;;;4.70;1.85;;;;;;;16.51;55.13;100742.81;4996130;28;20149;-67
2022/08/29 02:26:20;;;;;;;4.25;1.83;;;;;;;16.47;55.49;100760.00;4995347;28;20135;-69
2022/08/29 02:28:52;;;;;;;8.18;1.85;;;;;;;16.39;55.66;100749.78;4992995;28;20045;-69
2022/08/29 02:31:21;;;;;;;5.90;1.63;;;;;;;16.35;55.78;100750.97;4996282;28;20140;-69
2022/08/29 02:33:49;;;;;;;7.85;2.13;;;;;;;16.29;56.14;100754.03;4997129;28;20061;-70
2022/08/29 02:36:17;;;;;;;4.43;1.90;;;;;;;16.23;56.19;100743.72;5015971;28;20068;-69
2022/08/29 02:38:45;;;;;;;7.78;2.00;;;;;;;16.28;56.34;100754.13;5016005;28;20405;-69
2022/08/29 02:41:11;;;;;;;5.63;2.10;;;;;;;16.25;56.66;100757.84;5015412;28;20094;-69
2022/08/29 02:43:41;;;;;;;7.32;1.90;;;;;;;16.34;55.96;100767.97;5015601;28;20099;-69
2022/08/29 02:46:11;;;;;;;5.25;1.90;;;;;;;16.29;56.07;100750.50;5007971;28;20073;-69
2022/08/29 02:48:38;;;;;;;5.57;1.63;;;;;;;16.29;55.98;100747.84;5003342;28;20081;-69
2022/08/29 02:51:04;;;;;;;5.55;1.75;;;;;;;16.23;56.26;100745.53;5003621;28;20102;-69
2022/08/29 02:53:31;;;;;;;4.57;1.75;;;;;;;16.19;56.18;100736.91;5004008;28;20045;-69
2022/08/29 02:55:58;;;;;;;5.15;2.08;;;;;;;16.18;56.63;100759.22;5000567;28;20046;-69
2022/08/29 02:58:25;;;;;;;9.15;2.35;;;;;;;16.17;56.69;100760.19;5000626;28;20570;-69
2022/08/29 03:00:52;;;;;;;6.75;2.47;;;;;;;16.15;56.67;100762.09;4998393;28;20390;-69
2022/08/29 03:03:19;;;;;;;4.18;2.20;;;;;;;16.12;57.06;100755.13;5001411;28;20044;-69
2022/08/29 03:05:46;;;;;;;6.00;1.88;;;;;;;16.02;56.83;100746.00;4998323;28;20058;-69
2022/08/29 03:08:13;;;;;;;5.03;1.98;;;;;;;16.09;57.17;100766.00;5005353;28;20144;-68
2022/08/29 03:10:41;;;;;;;9.30;2.38;;;;;;;16.08;57.26;100764.28;4997197;28;20101;-68
2022/08/29 03:13:09;;;;;;;7.57;2.20;;;;;;;16.10;57.20;100764.19;5005067;28;20517;-68
2022/08/29 03:15:36;;;;;;;5.75;2.00;;;;;;;16.12;56.92;100756.94;4995794;28;20583;-68
2022/08/29 03:18:03;;;;;;;4.55;1.75;;;;;;;16.09;57.10;100754.47;5000148;28;20050;-68
2022/08/29 03:20:33;;;;;;;8.00;2.10;;;;;;;16.05;57.04;100760.97;4999949;28;20077;-69
2022/08/29 03:23:00;;;;;;;4.18;2.17;;;;;;;16.00;57.57;100761.25;5002415;28;20072;-67
2022/08/29 03:25:27;;;;;;;5.68;2.42;;;;;;;15.92;57.14;100760.88;5003539;28;20410;-68
2022/08/29 03:27:53;;;;;;;4.55;2.00;;;;;;;15.92;57.55;100760.00;5003969;28;20485;-70
2022/08/29 03:30:20;;;;;;;6.60;2.15;;;;;;;15.87;57.50;100771.00;5001457;28;20050;-68
2022/08/29 03:32:49;;;;;;;4.18;2.08;;;;;;;15.81;58.19;100760.69;5004738;28;20054;-68
2022/08/29 03:35:18;;;;;;;7.18;2.42;;;;;;;15.82;58.21;100769.56;5004003;28;20436;-69
2022/08/29 03:37:45;;;;;;;5.50;2.00;;;;;;;15.77;58.17;100757.34;5002875;28;20122;-68
2022/08/29 03:40:12;;;;;;;8.32;2.40;;;;;;;15.77;58.73;100768.03;5004535;28;20081;-68
2022/08/29 03:42:39;;;;;;;4.68;1.90;;;;;;;15.74;58.26;100768.22;5007987;28;20064;-68
2022/08/29 03:45:10;;;;;;;5.68;2.50;;;;;;;15.73;58.61;100769.22;5003540;28;20046;-68
2022/08/29 03:47:37;;;;;;;5.30;2.50;;;;;;;15.71;58.53;100767.59;4995959;28;20038;-68
2022/08/29 03:50:04;;;;;;;5.80;2.28;;;;;;;15.71;58.60;100768.44;5001788;28;20462;-68
2022/08/29 03:52:31;;;;;;;4.63;2.42;;;;;;;15.72;58.50;100769.31;5004862;28;20065;-68
2022/08/29 03:54:58;;;;;;;7.07;2.38;;;;;;;15.66;58.44;100759.00;4999278;28;20054;-68
2022/08/29 03:57:26;;;;;;;5.05;2.22;;;;;;;15.54;58.73;100733.88;5001029;28;20057;-68
2022/08/29 03:59:56;;;;;;;6.00;2.30;;;;;;;15.67;58.92;100761.56;4996607;28;20586;-68
2022/08/29 04:02:23;;;;;;;4.22;2.17;;;;;;;15.62;58.91;100760.13;5005108;28;20115;-69
2022/08/29 04:05:08;;;;;;;5.13;2.60;;;;;;;15.57;59.11;100763.09;5004248;28;20122;-68
2022/08/29 04:07:50;;;;;;;6.47;2.50;;;;;;;15.56;59.13;100760.53;4993602;28;20057;-68
2022/08/29 04:10:30;;;;;;;7.55;2.60;;;;;;;15.49;59.21;100762.66;4994462;28;20422;-68
2022/08/29 04:12:58;;;;;;;5.68;2.40;;;;;;;15.39;59.46;100748.19;5004602;28;20141;-68
2022/08/29 04:15:27;;;;;;;6.05;2.47;;;;;;;15.40;59.76;100757.91;5001987;28;20049;-68
2022/08/29 04:17:57;;;;;;;5.93;2.60;;;;;;;15.34;60.04;100756.47;5001429;28;20042;-68
2022/08/29 04:20:26;;;;;;;5.60;2.40;;;;;;;15.30;59.98;100762.06;5003569;28;20115;-69
2022/08/29 04:22:55;;;;;;;6.43;2.55;;;;;;;15.28;60.53;100763.97;5001796;28;20642;-68
2022/08/29 04:25:24;;;;;;;4.63;2.40;;;;;;;15.09;60.41;100741.09;4999655;28;20057;-69
2022/08/29 04:27:51;;;;;;;6.32;2.90;;;;;;;15.24;60.47;100771.31;5004145;28;20140;-68
2022/08/29 04:30:21;;;;;;;8.18;2.60;;;;;;;15.28;60.91;100777.31;4999766;28;20084;-68
2022/08/29 04:32:49;;;;;;;5.68;2.88;;;;;;;15.28;60.70;100774.63;5003734;28;20400;-68
2022/08/29 04:35:15;;;;;;;5.68;2.67;;;;;;;15.16;60.43;100754.91;5003207;28;20140;-69
2022/08/29 04:37:43;;;;;;;9.48;2.90;;;;;;;15.16;60.88;100760.22;4996541;28;20050;-68
2022/08/29 04:40:14;;;;;;;8.02;2.72;;;;;;;15.26;60.61;100780.09;4981123;28;20046;-69
2022/08/29 04:42:42;;;;;;;5.22;2.50;;;;;;;15.26;60.47;100777.44;5003300;28;20050;-68
2022/08/29 04:45:11;;;;;;;6.10;2.60;;;;;;;15.22;60.54;100770.56;4998134;28;20509;-69
2022/08/29 04:47:39;;;;;;;5.70;3.00;;;;;;;15.15;60.67;100777.19;4996459;28;20378;-69
2022/08/29 04:50:08;;;;;;;6.63;2.38;;;;;;;15.16;61.32;100775.38;5003407;28;20045;-69
2022/08/29 04:52:35;;;;;;;6.18;2.60;;;;;;;15.09;61.41;100773.09;5001383;28;20053;-68
2022/08/29 04:55:04;;;;;;;7.80;2.90;;;;;;;15.15;62.05;100779.84;4994439;28;20075;-68
2022/08/29 04:57:30;;;;;;;5.97;2.92;;;;;;;15.15;61.42;100781.66;4996323;28;20077;-68
2022/08/29 04:59:58;;;;;;;4.78;2.65;;;;;;;15.14;61.76;100782.63;4999212;28;20137;-68
2022/08/29 05:02:26;;;;;;;7.07;2.50;;;;;;;15.16;61.43;100786.91;5001729;28;20057;-68
2022/08/29 05:04:55;;;;;;;5.35;2.50;;;;;;;14.99;61.58;100755.91;4994478;28;20050;-68
2022/08/29 05:07:24;;;;;;;7.53;2.50;;;;;;;15.16;61.80;100791.38;5001920;28;20079;-69
2022/08/29 05:10:05;;;;;;;7.07;2.53;;;;;;;15.15;61.64;100792.34;4994221;28;20054;-68
2022/08/29 05:12:34;;;;;;;6.18;2.70;;;;;;;15.14;61.80;100807.47;4998986;28;20402;-69
2022/08/29 05:15:01;;;;;;;5.37;2.80;;;;;;;15.09;61.80;100798.91;4995727;28;20076;-69
2022/08/29 05:17:28;;;;;;;5.28;2.80;;;;;;;15.13;61.98;100802.22;4993246;28;20489;-69
2022/08/29 05:19:55;;;;;;;7.63;2.65;;;;;;;15.17;61.90;100806.44;5000483;28;20042;-68
2022/08/29 05:22:22;;;;;;;7.25;2.60;;;;;;;15.18;61.88;100805.50;4996990;28;20046;-68
2022/08/29 05:24:49;;;;;;;6.88;2.75;;;;;;;15.23;62.30;100803.44;4990860;28;20050;-69
2022/08/29 05:27:19;;;;;;;7.38;2.50;;;;;;;15.30;61.97;100810.94;5003382;28;20076;-69
2022/08/29 05:29:48;;;;;;;6.97;2.90;;;;;;;15.34;61.34;100814.31;5001498;28;20057;-69
2022/08/29 05:32:17;;;;;;;9.13;2.77;;;;;;;15.33;61.55;100809.91;5000160;28;20080;-68
2022/08/29 05:34:45;;;;;;;9.13;3.38;;;;;;;15.33;61.78;100809.91;4991215;28;20079;-68
2022/08/29 05:37:14;;;;;;;6.65;3.17;;;;;;;15.32;61.69;100800.19;4998248;28;20045;-69
2022/08/29 05:39:41;;;;;;;8.02;3.08;;;;;;;15.28;61.76;100787.97;5001478;28;20057;-68
2022/08/29 05:42:10;;;;;;;6.47;2.88;;;;;;;15.44;61.21;100813.66;5001432;28;20099;-68
2022/08/29 05:44:37;;;;;;;5.75;2.92;;;;;;;15.46;61.02;100805.56;4995701;28;20041;-69
2022/08/29 05:47:07;;;;;;;9.02;3.08;;;;;;;15.45;61.71;100798.50;5001166;28;20050;-69
2022/08/29 05:49:38;;;;;;;8.98;2.88;;;;;;;15.50;61.46;100796.41;5000035;28;20102;-69
2022/08/29 05:52:06;;;;;;;5.90;3.08;;;;;;;15.57;61.16;100805.81;5002176;28;20050;-68
2022/08/29 05:54:35;;;;;;;10.75;2.53;;;;;;;15.59;61.34;100798.53;4996856;28;20745;-69
2022/08/29 05:57:02;;;;;;;7.50;3.00;;;;;;;15.58;61.21;100801.34;5000263;28;20050;-68
2022/08/29 05:59:28;;;;;;;8.52;3.10;;;;;;;15.63;61.11;100808.09;4992641;28;20046;-68
2022/08/29 06:01:55;;;;;;;7.65;3.03;;;;;;;15.71;61.20;100807.63;4993568;28;20563;-70
2022/08/29 06:04:22;;;;;;;7.85;2.92;;;;;;;15.76;61.62;100809.03;5001344;28;20081;-68
2022/08/29 06:06:49;;;;;;;8.65;3.38;;;;;;;15.78;60.62;100801.81;4998827;28;20088;-69
2022/08/29 06:09:17;;;;;;;6.25;2.83;;;;;;;15.89;60.60;100808.31;4992383;28;20073;-69
2022/08/29 06:11:52;;;;;;;12.57;3.35;;;;;;;15.93;60.64;100809.81;4992679;28;20046;-68
2022/08/29 06:14:19;;;;;;;9.40;3.03;;;;;;;15.98;60.65;100807.72;4987708;28;20054;-69
2022/08/29 06:16:45;;;;;;;8.05;3.15;;;;;;;16.01;60.02;100808.38;4992309;28;20046;-68
2022/08/29 06:19:12;;;;;;;8.48;3.67;;;;;;;16.08;60.13;100807.03;4995697;28;20888;-68
2022/08/29 06:21:39;;;;;;;8.13;3.00;;;;;;;16.10;60.42;100801.59;4994884;28;20099;-68
2022/08/29 06:24:06;;;;;;;9.60;2.95;;;;;;;16.17;59.68;100805.59;4994380;28;20059;-70
2022/08/29 06:26:33;;;;;;;5.78;3.30;;;;;;;16.30;59.30;100811.03;4989323;28;20054;-69
2022/08/29 06:29:04;;;;;;;6.63;3.03;;;;;;;16.36;58.96;100810.63;4989576;28;20045;-69
2022/08/29 06:31:31;;;;;;;8.10;3.05;;;;;;;16.52;59.03;100818.53;4994506;28;20064;-69
2022/08/29 06:34:00;;;;;;;6.47;2.88;;;;;;;16.63;59.02;100830.25;4997023;28;20050;-68
2022/08/29 06:36:28;;;;;;;8.57;3.00;;;;;;;16.88;58.12;100832.16;4994586;28;20099;-68
2022/08/29 06:39:02;;;;;;;8.45;3.20;;;;;;;17.12;57.87;100835.91;4992595;28;20045;-68
2022/08/29 06:41:28;;;;;;;9.30;2.92;;;;;;;17.29;56.47;100807.16;4992211;28;20086;-69
2022/08/29 06:43:56;;;;;;;7.25;2.95;;;;;;;17.70;55.29;100810.50;4989521;28;20090;-69
2022/08/29 06:46:24;;;;;;;7.70;3.30;;;;;;;18.02;54.60;100832.34;4995623;28;20143;-69
2022/08/29 06:48:51;;;;;;;10.05;3.15;;;;;;;18.27;53.19;100834.13;4995810;28;20061;-69
2022/08/29 06:51:18;;;;;;;7.05;3.00;;;;;;;18.42;52.94;100840.22;4996257;28;20057;-69
2022/08/29 06:53:45;;;;;;;10.15;3.33;;;;;;;18.45;53.10;100842.66;4990966;28;20514;-69
2022/08/29 06:56:13;;;;;;;9.98;3.20;;;;;;;18.53;52.93;100835.81;4996823;28;20111;-69
2022/08/29 06:58:40;;;;;;;6.32;3.17;;;;;;;18.71;52.00;100839.00;4992709;28;20091;-68
2022/08/29 07:01:12;;;;;;;5.97;2.80;;;;;;;18.95;52.30;100838.13;4992280;28;20053;-70
2022/08/29 07:03:40;;;;;;;6.18;2.35;;;;;;;19.27;50.67;100833.88;4994504;28;20045;-69
2022/08/29 07:06:07;;;;;;;8.32;2.90;;;;;;;19.53;50.30;100827.38;4994481;28;20050;-69
2022/08/29 07:08:35;;;;;;;6.78;3.10;;;;;;;19.85;49.60;100832.91;4995516;28;20057;-68
2022/08/29 07:11:06;;;;;;;6.07;2.67;;;;;;;20.02;48.18;100833.41;4992675;28;20050;-69
2022/08/29 07:13:34;;;;;;;6.25;2.50;;;;;;;20.22;47.87;100832.69;4992107;28;20057;-69
2022/08/29 07:16:01;;;;;;;7.22;3.10;;;;;;;20.44;47.82;100832.72;4999683;28;20064;-70
2022/08/29 07:18:28;;;;;;;8.55;3.08;;;;;;;20.66;46.77;100838.03;4994905;28;20056;-70
2022/08/29 07:20:54;;;;;;;8.88;2.92;;;;;;;20.59;46.71;100822.53;4998199;28;20558;-68
2022/08/29 07:23:21;;;;;;;12.98;2.90;;;;;;;20.61;46.65;100840.28;4994304;28;20115;-68
2022/08/29 07:25:49;;;;;;;7.30;2.95;;;;;;;20.54;47.74;100839.06;4996394;28;20507;-68
2022/08/29 07:28:16;;;;;;;8.90;2.95;;;;;;;20.65;47.08;100841.72;4990367;28;20122;-70
2022/08/29 07:30:43;;;;;;;8.20;2.75;;;;;;;20.74;47.23;100815.03;5004444;28;20399;-70
2022/08/29 07:33:09;;;;;;;16.25;3.30;;;;;;;20.98;46.39;100837.22;4993611;28;20042;-70
2022/08/29 07:35:36;;;;;;;9.90;3.20;;;;;;;21.15;45.07;100850.13;4995957;28;20054;-69
2022/08/29 07:38:03;;;;;;;7.70;2.63;;;;;;;21.21;44.49;100846.97;4992424;28;20452;-70
2022/08/29 07:40:30;;;;;;;6.35;3.40;;;;;;;21.27;45.25;100848.25;4989921;28;20050;-70
2022/08/29 07:42:56;;;;;;;7.57;3.00;;;;;;;21.24;45.39;100824.31;4993310;28;20050;-69
2022/08/29 07:45:23;;;;;;;10.00;3.30;;;;;;;21.43;43.85;100823.56;4993039;28;20061;-70
2022/08/29 07:47:50;;;;;;;7.88;2.67;;;;;;;21.81;44.05;100842.69;4992300;28;20401;-68
2022/08/29 07:50:16;;;;;;;6.90;2.63;;;;;;;21.94;42.93;100834.38;4994184;28;20069;-69
2022/08/29 07:52:43;;;;;;;5.55;2.65;;;;;;;21.96;42.50;100848.59;4991458;28;20060;-69
2022/08/29 07:55:10;;;;;;;4.38;2.53;;;;;;;21.64;43.35;100841.47;4996614;28;20134;-68
2022/08/29 07:57:37;;;;;;;13.45;3.17;;;;;;;21.66;44.91;100844.03;4991283;28;20054;-68
2022/08/29 08:00:10;;;;;;;7.63;2.58;;;;;;;21.75;43.67;100831.59;4998087;28;20041;-68
2022/08/29 08:02:37;;;;;;;8.55;2.72;;;;;;;21.84;43.72;100837.03;4999752;28;20046;-68
2022/08/29 08:05:05;;;;;;;8.20;2.97;;;;;;;21.97;43.74;100829.59;4996090;28;20061;-69
2022/08/29 08:07:33;;;;;;;8.25;2.83;;;;;;;22.02;43.51;100837.31;4990177;28;20058;-70
2022/08/29 08:10:01;;;;;;;7.50;2.85;;;;;;;22.07;43.47;100834.19;4994517;28;20079;-68
2022/08/29 08:12:28;;;;;;;7.72;2.88;;;;;;;22.22;43.54;100843.63;4992522;28;20050;-68
2022/08/29 08:14:56;;;;;;;7.57;2.67;;;;;;;22.26;42.48;100842.38;4995253;28;20056;-69
2022/08/29 08:17:22;;;;;;;4.28;2.45;;;;;;;22.05;42.82;100835.19;4995429;28;20137;-68
2022/08/29 08:19:50;;;;;;;12.70;2.67;;;;;;;22.02;44.26;100838.16;4996686;28;20038;-69
2022/08/29 08:22:17;;;;;;;5.60;2.47;;;;;;;22.00;42.78;100840.16;4989403;28;20054;-69
2022/08/29 08:24:43;;;;;;;5.30;2.50;;;;;;;21.85;43.20;100840.59;4995727;28;20556;-69
2022/08/29 08:27:10;;;;;;;10.85;2.78;;;;;;;21.63;43.86;100849.69;4980691;28;20046;-70
2022/08/29 08:29:37;;;;;;;6.03;2.75;;;;;;;21.56;43.54;100848.50;4996943;28;20818;-70
2022/08/29 08:32:04;;;;;;;5.05;2.22;;;;;;;21.46;44.11;100850.25;4991010;28;20042;-70
2022/08/29 08:34:30;;;;;;;7.50;2.53;;;;;;;21.62;43.66;100847.97;5005941;28;20134;-70
2022/08/29 08:37:06;;;;;;;5.95;2.45;;;;;;;21.71;43.35;100847.19;4983655;28;20846;-70
2022/08/29 08:39:33;;;;;;;7.97;2.80;;;;;;;21.63;43.83;100842.44;4996211;28;20058;-69
2022/08/29 08:42:21;;;;;;;7.25;2.70;;;;;;;21.46;44.51;100842.19;4991816;28;20190;-69
2022/08/29 08:45:10;;;;;;;9.52;2.47;;;;;;;21.42;44.06;100846.97;5000277;28;20617;-70
2022/08/29 08:47:55;;;;;;;5.63;2.55;;;;;;;21.55;44.12;100846.78;4996375;28;20060;-68
2022/08/29 08:50:47;;;;;;;3.92;2.25;;;;;;;21.67;44.10;100854.69;5004060;28;20060;-69
2022/08/29 08:53:33;;;;;;;6.95;2.60;;;;;;;21.87;43.29;100852.09;4996012;28;20042;-69
2022/08/29 08:56:10;;;;;;;5.53;2.45;;;;;;;21.76;43.55;100828.75;5000775;28;20054;-70
2022/08/29 08:58:41;;;;;;;6.38;2.50;;;;;;;21.96;42.98;100854.84;4993169;28;20100;-70
2022/08/29 09:01:21;;;;;;;9.07;2.67;;;;;;;21.92;43.33;100850.69;5000564;28;20111;-69
2022/08/29 09:04:16;;;;;;;4.85;2.15;;;;;;;21.92;42.90;100848.00;4999599;28;20103;-69
2022/08/29 09:07:11;;;;;;;5.03;2.40;;;;;;;21.77;42.92;100841.25;4999385;28;20042;-69
2022/08/29 09:09:50;;;;;;;12.50;2.67;;;;;;;21.71;42.94;100847.19;4986174;28;20099;-70
2022/08/29 09:12:50;;;;;;;7.00;2.85;;;;;;;21.70;43.66;100837.38;4997212;28;20046;-70
2022/08/29 09:15:24;;;;;;;6.30;2.72;;;;;;;21.54;43.41;100826.22;4992147;28;20106;-70
2022/08/29 09:17:59;;;;;;;6.38;2.53;;;;;;;21.59;43.54;100853.59;4982929;28;20078;-73
2022/08/29 09:20:30;;;;;;;6.13;2.25;;;;;;;21.54;43.43;100848.63;4990665;28;20586;-72
2022/08/29 09:23:02;;;;;;;8.65;2.58;;;;;;;21.48;43.94;100846.44;4992641;28;20335;-71
2022/08/29 09:25:30;;;;;;;6.45;2.22;;;;;;;21.46;43.87;100847.56;4987473;28;20058;-71
2022/08/29 09:27:57;;;;;;;6.85;2.10;;;;;;;21.55;43.61;100839.56;4991925;28;20052;-71
2022/08/29 09:30:29;;;;;;;7.53;2.13;;;;;;;21.58;43.75;100835.72;4995882;28;20767;-71
2022/08/29 09:33:00;;;;;;;9.82;2.83;;;;;;;21.82;44.04;100849.81;4990605;28;20066;-72
2022/08/29 09:35:35;;;;;;;12.65;2.70;;;;;;;21.99;43.44;100842.94;5002987;28;20064;-72
2022/08/29 09:38:16;;;;;;;5.65;2.65;;;;;;;22.10;43.40;100840.19;4989852;28;20731;-73
2022/08/29 09:41:09;;;;;;;6.53;2.28;;;;;;;22.05;43.41;100843.28;4994761;28;20046;-73
2022/08/29 09:43:39;;;;;;;9.10;2.83;;;;;;;21.92;43.64;100839.06;4990129;28;20046;-73
2022/08/29 09:46:22;;;;;;;9.48;3.15;;;;;;;21.94;43.70;100840.63;4993798;28;20058;-73
2022/08/29 09:48:53;;;;;;;6.65;2.58;;;;;;;22.04;43.85;100838.88;4994772;28;20053;-72
2022/08/29 09:51:23;;;;;;;8.07;3.00;;;;;;;22.09;43.01;100814.19;4997079;28;20488;-71
2022/08/29 09:53:54;;;;;;;;;;;;;;;22.29;42.41;100836.72;4993668;28;20487;-72
2022/08/29 09:56:25;;;;;;;8.60;2.53;;;;;;;22.41;41.89;100827.50;4991615;28;19922;-72
2022/08/29 09:59:19;;;;;;;11.20;3.13;;;;;;;22.56;41.26;100830.69;4994836;28;20034;-77
2022/08/29 10:01:46;;;;;;;8.05;2.55;;;;;;;22.67;40.59;100835.94;4996300;28;20074;-72
2022/08/29 10:04:38;;;;;;;6.47;2.00;;;;;;;22.72;41.03;100837.25;5003077;28;20054;-73
2022/08/29 10:07:33;;;;;;;5.95;2.20;;;;;;;22.86;40.35;100827.06;4994382;28;20095;-73
2022/08/29 10:10:19;;;;;;;4.82;2.25;;;;;;;22.90;40.73;100831.19;4986948;28;20526;-72
2022/08/29 10:12:53;;;;;;;8.27;2.30;;;;;;;23.05;39.57;100829.78;4997380;28;20129;-71
2022/08/29 10:15:27;;;;;;;5.45;2.10;;;;;;;23.07;39.47;100822.41;4993139;28;20049;-73
2022/08/29 10:18:19;;;;;;;5.45;2.13;;;;;;;23.22;39.15;100825.53;4998737;28;20195;-71
2022/08/29 10:21:11;;;;;;;7.75;2.30;;;;;;;23.24;39.04;100820.84;4998181;28;20135;-71
2022/08/29 10:23:52;;;;;;;5.00;2.13;;;;;;;23.25;38.48;100825.25;4997013;28;20053;-73
2022/08/29 10:26:30;;;;;;;5.07;1.90;;;;;;;23.24;38.30;100813.59;4996017;28;20058;-71
2022/08/29 10:29:01;;;;;;;5.53;1.80;;;;;;;23.33;37.35;100810.00;4991173;28;20058;-73
2022/08/29 10:31:42;;;;;;;9.65;2.30;;;;;;;23.42;39.19;100808.31;4994894;28;20106;-70
2022/08/29 10:34:36;;;;;;;7.32;2.22;;;;;;;23.53;38.74;100807.31;5003213;28;20038;-71
2022/08/29 10:37:36;;;;;;;4.53;1.80;;;;;;;23.37;38.64;100784.41;4997380;28;20172;-72
2022/08/29 10:40:24;;;;;;;4.28;1.70;;;;;;;23.73;37.86;100808.97;4995236;28;20054;-70
2022/08/29 10:43:13;;;;;;;4.35;2.00;;;;;;;23.90;37.60;100807.38;4989065;28;20138;-71
2022/08/29 10:46:10;;;;;;;7.00;2.05;;;;;;;24.00;36.29;100805.47;4963377;28;20552;-71
2022/08/29 10:48:42;;;;;;;5.93;1.90;;;;;;;24.05;37.61;100803.19;4992105;28;20069;-72
2022/08/29 10:51:40;;;;;;;4.00;1.75;;;;;;;24.10;36.66;100801.72;4994020;28;20086;-73
2022/08/29 10:54:28;;;;;;;5.65;2.10;;;;;;;24.13;36.85;100801.41;4999010;28;20530;-71
2022/08/29 10:56:58;;;;;;;4.43;1.70;;;;;;;24.24;36.91;100800.38;4999459;28;20058;-72
2022/08/29 11:00:04;;;;;;;9.60;1.80;;;;;;;24.15;37.13;100790.44;4996131;28;20049;-70
2022/08/29 11:02:39;;;;;;;5.25;1.90;;;;;;;24.19;36.67;100778.31;4994005;28;20488;-71
2022/08/29 11:05:14;;;;;;;4.38;1.77;;;;;;;24.26;36.38;100787.56;4988732;28;20042;-71
2022/08/29 11:07:53;;;;;;;6.07;1.98;;;;;;;24.29;36.05;100786.41;4997051;28;20134;-73
2022/08/29 11:10:29;;;;;;;5.85;1.98;;;;;;;24.32;36.15;100795.09;4998457;28;20443;-72
2022/08/29 11:13:04;;;;;;;4.85;1.70;;;;;;;24.18;35.94;100787.44;5003576;28;20085;-71
2022/08/29 11:15:41;;;;;;;4.32;1.90;;;;;;;24.23;35.96;100777.06;4997113;28;20076;-73
2022/08/29 11:18:23;;;;;;;4.38;1.63;;;;;;;24.21;35.89;100783.59;4978726;28;20050;-70
2022/08/29 11:20:55;;;;;;;3.60;1.77;;;;;;;24.08;36.39;100787.47;5002554;28;20049;-73
2022/08/29 11:23:39;;;;;;;6.05;1.63;;;;;;;23.98;36.09;100759.63;4991496;28;20125;-73
2022/08/29 11:26:35;;;;;;;3.90;1.55;;;;;;;24.21;36.14;100779.03;4990100;28;20724;-74
2022/08/29 11:29:31;;;;;;;4.65;1.58;;;;;;;24.36;35.99;100777.56;4991180;28;20034;-73
2022/08/29 11:32:15;;;;;;;6.25;1.90;;;;;;;24.39;35.02;100758.31;4991049;28;20383;-71
2022/08/29 11:35:04;;;;;;;6.53;1.83;;;;;;;24.56;34.68;100764.72;4998463;28;20061;-71
2022/08/29 11:38:17;;;;;;;5.07;2.08;;;;;;;24.77;35.00;100770.72;4998577;28;20106;-71
2022/08/29 11:41:02;;;;;;;3.25;1.45;;;;;;;24.92;34.67;100746.63;4998864;28;20053;-70
2022/08/29 11:43:53;;;;;;;3.83;1.70;;;;;;;24.98;34.17;100737.94;4999276;28;20146;-69
2022/08/29 11:46:55;;;;;;;4.72;1.70;;;;;;;25.22;34.00;100753.53;5002962;28;20049;-70
2022/08/29 11:49:36;;;;;;;3.00;1.60;;;;;;;25.35;33.74;100750.38;4930806;28;20063;-70